Time;durP1;ratioP1;P1;durP2;ratioP2;P2;SDS_P1;SDS_P2;PMS_P1;PMS_P2;Temp;Humidity;BMP_temperature;BMP_pressure;BME280_temperature;BME280_humidity;BME280_pressure;Samples;Min_cycle;Max_cycle;Signal;HPM_P1;HPM_P2
2021/12/23 00:00:25;;;;;;;;;;;;;;;;;;2049435;28;1206;-78
2021/12/23 00:01:27;;;;;;;;;;;;;;;;;;2057324;28;1051;-77
2021/12/23 00:02:27;;;;;;;;;;;;;;;;;;2057978;28;1685;-83
2021/12/23 00:03:29;;;;;;;;;;;;;;;;;;2057383;28;1679;-79
2021/12/23 00:04:32;;;;;;;;;;;;;;;;;;2057566;28;1630;-78
2021/12/23 00:05:35;;;;;;;;;;;;;;;;;;2057948;28;1767;-78
2021/12/23 00:06:38;;;;;;;;;;;;;;;;;;2058614;28;1314;-77
2021/12/23 00:07:39;;;;;;;;;;;;;;;;;;2051496;28;1254;-79
2021/12/23 00:08:41;;;;;;;;;;;;;;;;;;2059075;28;1494;-78
2021/12/23 00:10:03;;;;;;;;;;;;;;;;;;2051112;28;1686;-77
2021/12/23 00:11:05;;;;;;;;;;;;;;;;;;2055167;28;1440;-78
2021/12/23 00:12:07;;;;;;;;;;;;;;;;;;2067496;28;1677;-77
2021/12/23 00:13:09;;;;;;;;;;;;;;;;;;2067076;28;1962;-78
2021/12/23 00:14:11;;;;;;;;;;;;;;;;;;2067234;28;903;-78
2021/12/23 00:15:22;;;;;;;;;;;;;;;;;;2067393;28;1714;-78
2021/12/23 00:16:40;;;;;;;;;;;;;;;;;;2063143;28;1854;-78
2021/12/23 00:17:56;;;;;;;;;;;;;;;;;;2051114;29;1710;-77
2021/12/23 00:19:03;;;;;;;;;;;;;;;;;;2045280;29;1657;-78
2021/12/23 00:24:02;;;;;;;;;;;;;;;;;;2051720;28;1544;-78
2021/12/23 00:25:03;;;;;;;;;;;;;;;;;;2059067;28;1242;-77
2021/12/23 00:26:05;;;;;;;;;;;;;;;;;;2060545;28;2071;-79
2021/12/23 00:27:06;;;;;;;;;;;;;;;;;;2067253;28;1382;-80
2021/12/23 00:28:08;;;;;;;;;;;;;;;;;;2068048;28;840;-79
2021/12/23 00:29:10;;;;;;;;;;;;;;;;;;2067812;28;1096;-79
2021/12/23 00:30:10;;;;;;;;;;;;;;;;;;2067959;28;742;-78
2021/12/23 00:31:12;;;;;;;;;;;;;;;;;;2056712;28;1269;-78
2021/12/23 00:32:13;;;;;;;;;;;;;;;;;;2051230;28;945;-78
2021/12/23 00:33:14;;;;;;;;;;;;;;;;;;2051012;29;1987;-78
2021/12/23 00:34:16;;;;;;;;;;;;;;;;;;2051221;28;1198;-78
2021/12/23 00:35:18;;;;;;;;;;;;;;;;;;2058913;28;1304;-78
2021/12/23 00:36:20;;;;;;;;;;;;;;;;;;2059115;28;2000;-78
2021/12/23 00:37:21;;;;;;;;;;;;;;;;;;2059074;28;1560;-78
2021/12/23 00:38:27;;;;;;;;;;;;;;;;;;2051084;28;1331;-78
2021/12/23 00:39:30;;;;;;;;;;;;;;;;;;2052144;28;852;-78
2021/12/23 00:40:32;;;;;;;;;;;;;;;;;;2059736;28;1020;-78
2021/12/23 00:41:35;;;;;;;;;;;;;;;;;;2061425;28;2017;-78
2021/12/23 00:42:36;;;;;;;;;;;;;;;;;;2059048;28;1553;-78
2021/12/23 00:43:37;;;;;;;;;;;;;;;;;;2058999;28;1917;-78
2021/12/23 00:44:40;;;;;;;;;;;;;;;;;;2067177;28;1217;-79
2021/12/23 00:45:41;;;;;;;;;;;;;;;;;;2075230;28;955;-78
2021/12/23 00:46:42;;;;;;;;;;;;;;;;;;2060318;28;1543;-78
2021/12/23 00:47:44;;;;;;;;;;;;;;;;;;2042936;29;1535;-79
2021/12/23 00:48:47;;;;;;;;;;;;;;;;;;2050912;28;1609;-78
2021/12/23 00:49:47;;;;;;;;;;;;;;;;;;2059029;28;879;-78
2021/12/23 00:50:51;;;;;;;;;;;;;;;;;;2059081;28;1205;-78
2021/12/23 00:51:53;;;;;;;;;;;;;;;;;;2058407;28;2053;-78
2021/12/23 00:52:57;;;;;;;;;;;;;;;;;;2067182;28;1592;-78
2021/12/23 00:54:04;;;;;;;;;;;;;;;;;;2067200;28;1985;-78
2021/12/23 00:55:07;;;;;;;;;;;;;;;;;;2066814;28;1860;-78
2021/12/23 00:56:10;;;;;;;;;;;;;;;;;;2065146;28;2146;-78
2021/12/23 00:57:12;;;;;;;;;;;;;;;;;;2066805;28;1533;-78
2021/12/23 00:58:12;;;;;;;;;;;;;;;;;;2067070;28;1168;-78
2021/12/23 00:59:14;;;;;;;;;;;;;;;;;;2058809;28;1560;-78
2021/12/23 01:00:16;;;;;;;;;;;;;;;;;;2059130;28;812;-79
2021/12/23 01:01:17;;;;;;;;;;;;;;;;;;2058920;28;1210;-78
2021/12/23 01:02:18;;;;;;;;;;;;;;;;;;2059112;28;1542;-78
2021/12/23 01:03:20;;;;;;;;;;;;;;;;;;2058611;28;1227;-78
2021/12/23 01:04:21;;;;;;;;;;;;;;;;;;2050897;28;1358;-78
2021/12/23 01:05:23;;;;;;;;;;;;;;;;;;2050703;28;1208;-78
2021/12/23 01:06:26;;;;;;;;;;;;;;;;;;2051167;28;1737;-78
2021/12/23 01:07:27;;;;;;;;;;;;;;;;;;2058791;28;1150;-78
2021/12/23 01:08:30;;;;;;;;;;;;;;;;;;2067039;28;1449;-78
2021/12/23 01:09:31;;;;;;;;;;;;;;;;;;2058719;28;1205;-78
2021/12/23 01:10:33;;;;;;;;;;;;;;;;;;2050635;29;1690;-78
2021/12/23 01:11:34;;;;;;;;;;;;;;;;;;2058491;28;1664;-78
2021/12/23 01:12:41;;;;;;;;;;;;;;;;;;2050933;29;1236;-78
2021/12/23 01:13:59;;;;;;;;;;;;;;;;;;2051660;28;2249;-78
2021/12/23 01:15:12;;;;;;;;;;;;;;;;;;2051624;28;920;-78
2021/12/23 01:16:25;;;;;;;;;;;;;;;;;;2050655;29;1335;-78
2021/12/23 01:17:32;;;;;;;;;;;;;;;;;;2051744;28;1560;-78
2021/12/23 01:18:38;;;;;;;;;;;;;;;;;;2058776;28;920;-78
2021/12/23 01:19:40;;;;;;;;;;;;;;;;;;2059190;28;845;-78
2021/12/23 01:20:51;;;;;;;;;;;;;;;;;;2058358;28;1491;-78
2021/12/23 01:21:52;;;;;;;;;;;;;;;;;;2058758;28;1627;-78
2021/12/23 01:22:55;;;;;;;;;;;;;;;;;;2050611;28;1296;-78
2021/12/23 01:23:56;;;;;;;;;;;;;;;;;;2050532;28;1655;-78
2021/12/23 01:24:58;;;;;;;;;;;;;;;;;;2035070;29;1637;-81
2021/12/23 01:25:59;;;;;;;;;;;;;;;;;;2050708;28;1548;-78
2021/12/23 01:27:01;;;;;;;;;;;;;;;;;;2058464;28;1220;-79
2021/12/23 01:28:03;;;;;;;;;;;;;;;;;;2058798;28;980;-78
2021/12/23 01:29:05;;;;;;;;;;;;;;;;;;2050267;29;1238;-78
2021/12/23 01:30:06;;;;;;;;;;;;;;;;;;2050661;28;904;-78
2021/12/23 01:31:08;;;;;;;;;;;;;;;;;;2050482;29;1234;-80
2021/12/23 01:32:08;;;;;;;;;;;;;;;;;;2042342;29;1589;-78
2021/12/23 01:33:11;;;;;;;;;;;;;;;;;;2050565;29;908;-78
2021/12/23 01:34:13;;;;;;;;;;;;;;;;;;2059244;28;1975;-78
2021/12/23 01:35:14;;;;;;;;;;;;;;;;;;2058269;28;1774;-78
2021/12/23 01:36:16;;;;;;;;;;;;;;;;;;2058223;28;1324;-77
2021/12/23 01:37:18;;;;;;;;;;;;;;;;;;2050532;28;1345;-79
2021/12/23 01:38:19;;;;;;;;;;;;;;;;;;2042735;29;1665;-78
2021/12/23 01:39:20;;;;;;;;;;;;;;;;;;2050528;28;1080;-78
2021/12/23 01:40:24;;;;;;;;;;;;;;;;;;2050648;29;1487;-77
2021/12/23 01:41:28;;;;;;;;;;;;;;;;;;2042467;29;1695;-78
2021/12/23 01:42:29;;;;;;;;;;;;;;;;;;2043329;29;1765;-79
2021/12/23 01:43:31;;;;;;;;;;;;;;;;;;2050653;29;932;-78
2021/12/23 01:44:32;;;;;;;;;;;;;;;;;;2058646;28;1437;-79
2021/12/23 01:45:35;;;;;;;;;;;;;;;;;;2050525;29;1674;-79
2021/12/23 01:46:36;;;;;;;;;;;;;;;;;;2042778;29;1653;-78
2021/12/23 01:47:38;;;;;;;;;;;;;;;;;;2042755;29;1623;-78
2021/12/23 01:48:38;;;;;;;;;;;;;;;;;;2042710;29;1369;-78
2021/12/23 01:49:41;;;;;;;;;;;;;;;;;;2050729;28;1333;-78
2021/12/23 01:50:43;;;;;;;;;;;;;;;;;;2050454;29;1212;-79
2021/12/23 01:51:44;;;;;;;;;;;;;;;;;;2049014;29;2235;-78
2021/12/23 01:52:46;;;;;;;;;;;;;;;;;;2042683;29;1889;-78
2021/12/23 01:53:49;;;;;;;;;;;;;;;;;;2050533;28;1973;-78
2021/12/23 01:54:49;;;;;;;;;;;;;;;;;;2058812;28;1197;-78
2021/12/23 01:55:51;;;;;;;;;;;;;;;;;;2058352;28;1387;-79
2021/12/23 01:56:52;;;;;;;;;;;;;;;;;;2057984;28;1805;-78
2021/12/23 01:57:54;;;;;;;;;;;;;;;;;;2058429;28;797;-78
2021/12/23 01:58:54;;;;;;;;;;;;;;;;;;2066965;28;808;-78
2021/12/23 01:59:56;;;;;;;;;;;;;;;;;;2058327;28;1246;-79
2021/12/23 02:00:57;;;;;;;;;;;;;;;;;;2050214;28;1252;-81
2021/12/23 02:01:59;;;;;;;;;;;;;;;;;;2050178;29;1239;-78
2021/12/23 02:03:00;;;;;;;;;;;;;;;;;;2057953;28;1701;-80
2021/12/23 02:04:01;;;;;;;;;;;;;;;;;;2058495;28;1366;-84
2021/12/23 02:05:02;;;;;;;;;;;;;;;;;;2058354;28;1023;-78
2021/12/23 02:06:04;;;;;;;;;;;;;;;;;;2067043;28;863;-78
2021/12/23 02:07:05;;;;;;;;;;;;;;;;;;2058300;28;1326;-78
2021/12/23 02:08:08;;;;;;;;;;;;;;;;;;2058449;28;1362;-78
2021/12/23 02:09:09;;;;;;;;;;;;;;;;;;2058122;28;1315;-78
2021/12/23 02:10:10;;;;;;;;;;;;;;;;;;2050433;29;1177;-78
2021/12/23 02:11:13;;;;;;;;;;;;;;;;;;2059942;28;989;-77
2021/12/23 02:12:14;;;;;;;;;;;;;;;;;;2075165;28;1044;-78
2021/12/23 02:13:16;;;;;;;;;;;;;;;;;;2074903;28;859;-80
2021/12/23 02:14:17;;;;;;;;;;;;;;;;;;2066452;28;1934;-78
2021/12/23 02:15:19;;;;;;;;;;;;;;;;;;2066313;28;911;-78
2021/12/23 02:16:20;;;;;;;;;;;;;;;;;;2074649;28;2082;-78
2021/12/23 02:17:21;;;;;;;;;;;;;;;;;;2065825;28;1530;-78
2021/12/23 02:18:23;;;;;;;;;;;;;;;;;;2066131;28;1571;-78
2021/12/23 02:19:24;;;;;;;;;;;;;;;;;;2066181;28;1238;-78
2021/12/23 02:20:29;;;;;;;;;;;;;;;;;;2066473;28;863;-78
2021/12/23 02:21:30;;;;;;;;;;;;;;;;;;2066238;28;1347;-78
2021/12/23 02:22:34;;;;;;;;;;;;;;;;;;2066002;28;1193;-80
2021/12/23 02:23:36;;;;;;;;;;;;;;;;;;2065981;28;1284;-78
2021/12/23 02:24:37;;;;;;;;;;;;;;;;;;2066628;28;899;-78
2021/12/23 02:25:39;;;;;;;;;;;;;;;;;;2058048;28;1644;-78
2021/12/23 02:26:40;;;;;;;;;;;;;;;;;;2058117;28;1359;-78
2021/12/23 02:27:42;;;;;;;;;;;;;;;;;;2066425;28;951;-78
2021/12/23 02:28:44;;;;;;;;;;;;;;;;;;2065761;28;1235;-78
2021/12/23 02:29:44;;;;;;;;;;;;;;;;;;2066082;28;919;-79
2021/12/23 02:30:51;;;;;;;;;;;;;;;;;;2074411;28;1679;-78
2021/12/23 02:31:53;;;;;;;;;;;;;;;;;;2074564;28;851;-78
2021/12/23 02:32:55;;;;;;;;;;;;;;;;;;2065827;28;1249;-79
2021/12/23 02:33:57;;;;;;;;;;;;;;;;;;2058372;28;1923;-78
2021/12/23 02:34:59;;;;;;;;;;;;;;;;;;2066228;28;1335;-79
2021/12/23 02:36:05;;;;;;;;;;;;;;;;;;2065662;28;840;-78
2021/12/23 02:37:06;;;;;;;;;;;;;;;;;;2066225;28;1712;-78
2021/12/23 02:38:07;;;;;;;;;;;;;;;;;;2058195;28;1512;-78
2021/12/23 02:39:08;;;;;;;;;;;;;;;;;;2057745;28;1178;-78
2021/12/23 02:40:11;;;;;;;;;;;;;;;;;;2050452;29;1539;-78
2021/12/23 02:41:11;;;;;;;;;;;;;;;;;;2049918;28;1693;-78
2021/12/23 02:42:13;;;;;;;;;;;;;;;;;;2049522;29;1556;-78
2021/12/23 02:43:15;;;;;;;;;;;;;;;;;;2057674;28;1308;-78
2021/12/23 02:44:17;;;;;;;;;;;;;;;;;;2050323;28;1641;-78
2021/12/23 02:45:18;;;;;;;;;;;;;;;;;;2050137;28;1709;-78
2021/12/23 02:46:19;;;;;;;;;;;;;;;;;;2058112;28;936;-81
2021/12/23 02:47:20;;;;;;;;;;;;;;;;;;2057980;28;1501;-78
2021/12/23 02:48:23;;;;;;;;;;;;;;;;;;2058350;28;1731;-77
2021/12/23 02:49:23;;;;;;;;;;;;;;;;;;2057898;28;1543;-78
2021/12/23 02:50:25;;;;;;;;;;;;;;;;;;2050178;29;1294;-79
2021/12/23 02:51:27;;;;;;;;;;;;;;;;;;2058000;28;1745;-78
2021/12/23 02:52:30;;;;;;;;;;;;;;;;;;2057690;28;1312;-78
2021/12/23 02:53:31;;;;;;;;;;;;;;;;;;2057826;28;966;-79
2021/12/23 02:54:32;;;;;;;;;;;;;;;;;;2066566;28;1958;-82
2021/12/23 02:55:35;;;;;;;;;;;;;;;;;;2066460;28;989;-78
2021/12/23 02:56:35;;;;;;;;;;;;;;;;;;2066524;28;809;-78
2021/12/23 02:57:37;;;;;;;;;;;;;;;;;;2058081;28;1364;-78
2021/12/23 02:58:38;;;;;;;;;;;;;;;;;;2050158;29;1729;-78
2021/12/23 02:59:40;;;;;;;;;;;;;;;;;;2041822;29;1242;-78
2021/12/23 03:00:41;;;;;;;;;;;;;;;;;;2042149;29;1205;-77
2021/12/23 03:01:43;;;;;;;;;;;;;;;;;;2050323;28;1253;-78
2021/12/23 03:02:44;;;;;;;;;;;;;;;;;;2058216;28;1532;-78
2021/12/23 03:03:46;;;;;;;;;;;;;;;;;;2065935;28;1341;-78
2021/12/23 03:04:47;;;;;;;;;;;;;;;;;;2066167;28;987;-78
2021/12/23 03:05:48;;;;;;;;;;;;;;;;;;2066142;28;1525;-78
2021/12/23 03:06:54;;;;;;;;;;;;;;;;;;2058328;28;2015;-79
2021/12/23 03:07:56;;;;;;;;;;;;;;;;;;2058388;28;896;-78
2021/12/23 03:08:59;;;;;;;;;;;;;;;;;;2058629;28;915;-83
2021/12/23 03:10:01;;;;;;;;;;;;;;;;;;2058060;28;1320;-78
2021/12/23 03:11:03;;;;;;;;;;;;;;;;;;2057816;28;1342;-78
2021/12/23 03:12:05;;;;;;;;;;;;;;;;;;2058163;28;1229;-78
2021/12/23 03:13:06;;;;;;;;;;;;;;;;;;2057745;28;873;-78
2021/12/23 03:14:08;;;;;;;;;;;;;;;;;;2049851;29;1973;-78
2021/12/23 03:15:09;;;;;;;;;;;;;;;;;;2049743;29;1560;-78
2021/12/23 03:16:12;;;;;;;;;;;;;;;;;;2044046;29;1269;-78
2021/12/23 03:17:15;;;;;;;;;;;;;;;;;;2050028;29;777;-78
2021/12/23 03:18:16;;;;;;;;;;;;;;;;;;2052620;28;1173;-78
2021/12/23 03:19:18;;;;;;;;;;;;;;;;;;2057962;28;947;-79
2021/12/23 03:20:19;;;;;;;;;;;;;;;;;;2053143;28;1321;-78
2021/12/23 03:21:21;;;;;;;;;;;;;;;;;;2057765;28;1390;-78
2021/12/23 03:22:24;;;;;;;;;;;;;;;;;;2057790;28;1390;-78
2021/12/23 03:23:25;;;;;;;;;;;;;;;;;;2057507;28;1317;-78
2021/12/23 03:24:27;;;;;;;;;;;;;;;;;;2057967;28;1308;-78
2021/12/23 03:25:28;;;;;;;;;;;;;;;;;;2057878;28;1526;-78
2021/12/23 03:26:30;;;;;;;;;;;;;;;;;;2057873;28;1255;-78
2021/12/23 03:27:31;;;;;;;;;;;;;;;;;;2049973;29;1256;-77
2021/12/23 03:28:32;;;;;;;;;;;;;;;;;;2050135;28;1643;-77
2021/12/23 03:29:34;;;;;;;;;;;;;;;;;;2057446;28;1854;-78
2021/12/23 03:30:35;;;;;;;;;;;;;;;;;;2057880;28;800;-81
2021/12/23 03:31:36;;;;;;;;;;;;;;;;;;2057721;28;1404;-79
2021/12/23 03:32:37;;;;;;;;;;;;;;;;;;2058240;28;891;-77
2021/12/23 03:33:39;;;;;;;;;;;;;;;;;;2057747;28;1327;-77
2021/12/23 03:34:39;;;;;;;;;;;;;;;;;;2058117;28;1906;-77
2021/12/23 03:35:41;;;;;;;;;;;;;;;;;;2058457;28;777;-77
2021/12/23 03:36:42;;;;;;;;;;;;;;;;;;2057658;28;2012;-77
2021/12/23 03:37:45;;;;;;;;;;;;;;;;;;2049718;29;1249;-77
2021/12/23 03:38:46;;;;;;;;;;;;;;;;;;2050131;28;1558;-77
2021/12/23 03:39:51;;;;;;;;;;;;;;;;;;2057873;28;1659;-78
2021/12/23 03:40:52;;;;;;;;;;;;;;;;;;2059241;28;1595;-80
2021/12/23 03:41:54;;;;;;;;;;;;;;;;;;2059394;28;1413;-77
2021/12/23 03:42:54;;;;;;;;;;;;;;;;;;2059243;28;900;-77
2021/12/23 03:43:56;;;;;;;;;;;;;;;;;;2059720;28;754;-79
2021/12/23 03:44:57;;;;;;;;;;;;;;;;;;2052310;28;766;-77
2021/12/23 03:45:59;;;;;;;;;;;;;;;;;;2051473;29;1461;-77
2021/12/23 03:46:59;;;;;;;;;;;;;;;;;;2051287;28;1371;-78
2021/12/23 03:48:01;;;;;;;;;;;;;;;;;;2051209;29;1731;-77
2021/12/23 03:49:02;;;;;;;;;;;;;;;;;;2051310;29;1013;-77
2021/12/23 03:50:04;;;;;;;;;;;;;;;;;;2051291;29;1645;-78
2021/12/23 03:51:05;;;;;;;;;;;;;;;;;;2043103;29;1606;-78
2021/12/23 03:52:07;;;;;;;;;;;;;;;;;;2043579;29;1302;-78
2021/12/23 03:53:09;;;;;;;;;;;;;;;;;;2051444;28;919;-78
2021/12/23 03:54:11;;;;;;;;;;;;;;;;;;2051370;29;1899;-77
2021/12/23 03:55:12;;;;;;;;;;;;;;;;;;2042933;29;1631;-77
2021/12/23 03:56:15;;;;;;;;;;;;;;;;;;2051438;28;1262;-77
2021/12/23 03:57:15;;;;;;;;;;;;;;;;;;2059305;28;908;-77
2021/12/23 03:58:17;;;;;;;;;;;;;;;;;;2059169;28;1367;-77
2021/12/23 03:59:18;;;;;;;;;;;;;;;;;;2059293;28;1605;-78
2021/12/23 04:00:22;;;;;;;;;;;;;;;;;;2059205;28;1054;-78
2021/12/23 04:01:23;;;;;;;;;;;;;;;;;;2059139;28;1863;-77
2021/12/23 04:02:25;;;;;;;;;;;;;;;;;;2059391;28;907;-78
2021/12/23 04:03:25;;;;;;;;;;;;;;;;;;2043249;29;1405;-77
2021/12/23 04:04:27;;;;;;;;;;;;;;;;;;2043442;29;1715;-78
2021/12/23 04:05:28;;;;;;;;;;;;;;;;;;2059102;28;770;-77
2021/12/23 04:06:29;;;;;;;;;;;;;;;;;;2063915;28;1321;-77
2021/12/23 04:07:30;;;;;;;;;;;;;;;;;;2059160;28;1577;-79
2021/12/23 04:08:33;;;;;;;;;;;;;;;;;;2051461;29;1322;-77
2021/12/23 04:09:35;;;;;;;;;;;;;;;;;;2051136;28;1308;-78
2021/12/23 04:10:36;;;;;;;;;;;;;;;;;;2059531;28;1614;-84
2021/12/23 04:11:37;;;;;;;;;;;;;;;;;;2059056;28;1266;-79
2021/12/23 04:12:38;;;;;;;;;;;;;;;;;;2059291;28;851;-78
2021/12/23 04:13:40;;;;;;;;;;;;;;;;;;2067720;28;833;-77
2021/12/23 04:14:40;;;;;;;;;;;;;;;;;;2067188;28;1969;-77
2021/12/23 04:15:42;;;;;;;;;;;;;;;;;;2059158;28;1197;-77
2021/12/23 04:16:43;;;;;;;;;;;;;;;;;;2058055;28;1636;-77
2021/12/23 04:17:45;;;;;;;;;;;;;;;;;;2067050;28;1322;-77
2021/12/23 04:18:46;;;;;;;;;;;;;;;;;;2067405;28;1833;-78
2021/12/23 04:19:49;;;;;;;;;;;;;;;;;;2067139;28;1295;-77
2021/12/23 04:20:53;;;;;;;;;;;;;;;;;;2067488;28;811;-77
2021/12/23 04:21:55;;;;;;;;;;;;;;;;;;2058953;28;1211;-77
2021/12/23 04:22:55;;;;;;;;;;;;;;;;;;2058927;28;1383;-77
2021/12/23 04:23:58;;;;;;;;;;;;;;;;;;2059558;28;1316;-78
2021/12/23 04:24:59;;;;;;;;;;;;;;;;;;2050985;29;1665;-77
2021/12/23 04:26:01;;;;;;;;;;;;;;;;;;2053222;28;1117;-76
2021/12/23 04:27:01;;;;;;;;;;;;;;;;;;2067137;28;1559;-77
2021/12/23 04:28:04;;;;;;;;;;;;;;;;;;2059016;28;1304;-77
2021/12/23 04:29:06;;;;;;;;;;;;;;;;;;2059069;28;1242;-77
2021/12/23 04:30:08;;;;;;;;;;;;;;;;;;2067022;28;1276;-79
2021/12/23 04:31:09;;;;;;;;;;;;;;;;;;2056822;28;1416;-77
2021/12/23 04:32:10;;;;;;;;;;;;;;;;;;2059295;28;879;-77
2021/12/23 04:33:12;;;;;;;;;;;;;;;;;;2058981;28;1524;-78
2021/12/23 04:34:13;;;;;;;;;;;;;;;;;;2059317;28;808;-79
2021/12/23 04:35:14;;;;;;;;;;;;;;;;;;2058902;28;1985;-78
2021/12/23 04:36:16;;;;;;;;;;;;;;;;;;2059137;28;1928;-78
2021/12/23 04:37:17;;;;;;;;;;;;;;;;;;2058921;28;1690;-78
2021/12/23 04:38:19;;;;;;;;;;;;;;;;;;2051157;29;1211;-78
2021/12/23 04:39:21;;;;;;;;;;;;;;;;;;2050776;28;1512;-78
2021/12/23 04:40:23;;;;;;;;;;;;;;;;;;2051158;28;1196;-78
2021/12/23 04:41:24;;;;;;;;;;;;;;;;;;2050770;28;1848;-78
2021/12/23 04:42:26;;;;;;;;;;;;;;;;;;2051087;28;1296;-79
2021/12/23 04:43:28;;;;;;;;;;;;;;;;;;2058647;28;1422;-78
2021/12/23 04:44:28;;;;;;;;;;;;;;;;;;2059034;28;864;-79
2021/12/23 04:45:30;;;;;;;;;;;;;;;;;;2050197;29;1454;-78
2021/12/23 04:46:31;;;;;;;;;;;;;;;;;;2060964;28;1837;-79
2021/12/23 04:47:33;;;;;;;;;;;;;;;;;;2067022;28;1212;-78
2021/12/23 04:48:33;;;;;;;;;;;;;;;;;;2067221;28;1257;-79
2021/12/23 04:49:36;;;;;;;;;;;;;;;;;;2075148;28;919;-78
2021/12/23 04:50:36;;;;;;;;;;;;;;;;;;2066454;28;1225;-84
2021/12/23 04:51:38;;;;;;;;;;;;;;;;;;2054370;28;1462;-79
2021/12/23 04:52:41;;;;;;;;;;;;;;;;;;2050801;29;1268;-79
2021/12/23 04:53:44;;;;;;;;;;;;;;;;;;2050694;28;1207;-79
2021/12/23 04:54:46;;;;;;;;;;;;;;;;;;2050910;29;2228;-77
2021/12/23 04:55:48;;;;;;;;;;;;;;;;;;2042629;29;1550;-77
2021/12/23 04:56:49;;;;;;;;;;;;;;;;;;2050155;28;1483;-78
2021/12/23 04:57:53;;;;;;;;;;;;;;;;;;2051178;28;1695;-77
2021/12/23 04:58:54;;;;;;;;;;;;;;;;;;2050910;28;1371;-77
2021/12/23 04:59:56;;;;;;;;;;;;;;;;;;2050678;29;1648;-78
2021/12/23 05:00:58;;;;;;;;;;;;;;;;;;2043543;28;1720;-84
2021/12/23 05:01:59;;;;;;;;;;;;;;;;;;2050928;28;1253;-78
2021/12/23 05:03:01;;;;;;;;;;;;;;;;;;2058851;28;821;-78
2021/12/23 05:04:01;;;;;;;;;;;;;;;;;;2059577;28;940;-78
2021/12/23 05:05:04;;;;;;;;;;;;;;;;;;2059450;28;828;-78
2021/12/23 05:06:06;;;;;;;;;;;;;;;;;;2052024;28;2009;-78
2021/12/23 05:07:08;;;;;;;;;;;;;;;;;;2058964;28;825;-78
2021/12/23 05:08:11;;;;;;;;;;;;;;;;;;2050952;29;1935;-78
2021/12/23 05:09:11;;;;;;;;;;;;;;;;;;2050769;28;1758;-78
2021/12/23 05:10:16;;;;;;;;;;;;;;;;;;2058915;28;1679;-78
2021/12/23 05:11:17;;;;;;;;;;;;;;;;;;2050385;29;1234;-78
2021/12/23 05:12:18;;;;;;;;;;;;;;;;;;2057287;28;1376;-78
2021/12/23 05:13:19;;;;;;;;;;;;;;;;;;2058822;28;1325;-78
2021/12/23 05:14:21;;;;;;;;;;;;;;;;;;2058220;28;1547;-78
2021/12/23 05:15:22;;;;;;;;;;;;;;;;;;2065284;28;1906;-77
2021/12/23 05:16:23;;;;;;;;;;;;;;;;;;2063120;28;2058;-77
2021/12/23 05:17:25;;;;;;;;;;;;;;;;;;2066759;28;1317;-77
2021/12/23 05:18:26;;;;;;;;;;;;;;;;;;2058953;28;1381;-77
2021/12/23 05:19:28;;;;;;;;;;;;;;;;;;2050687;29;1221;-77
2021/12/23 05:20:28;;;;;;;;;;;;;;;;;;2044889;29;1553;-78
2021/12/23 05:21:30;;;;;;;;;;;;;;;;;;2042692;29;1373;-77
2021/12/23 05:22:31;;;;;;;;;;;;;;;;;;2051001;28;1271;-77
2021/12/23 05:23:33;;;;;;;;;;;;;;;;;;2059334;28;1372;-77
2021/12/23 05:24:34;;;;;;;;;;;;;;;;;;2042726;29;1507;-77
2021/12/23 05:25:37;;;;;;;;;;;;;;;;;;2042223;29;1199;-77
2021/12/23 05:26:38;;;;;;;;;;;;;;;;;;2056909;28;1862;-77
2021/12/23 05:27:40;;;;;;;;;;;;;;;;;;2052155;28;1901;-78
2021/12/23 05:28:41;;;;;;;;;;;;;;;;;;2050561;29;1345;-77
2021/12/23 05:29:44;;;;;;;;;;;;;;;;;;2045389;28;1374;-79
2021/12/23 05:30:46;;;;;;;;;;;;;;;;;;2058438;28;1285;-79
2021/12/23 05:31:48;;;;;;;;;;;;;;;;;;2065987;28;1884;-78
2021/12/23 05:32:48;;;;;;;;;;;;;;;;;;2066385;28;1300;-78
2021/12/23 05:33:50;;;;;;;;;;;;;;;;;;2058090;28;1534;-78
2021/12/23 05:34:50;;;;;;;;;;;;;;;;;;2058282;28;1910;-78
2021/12/23 05:35:52;;;;;;;;;;;;;;;;;;2058556;28;1633;-77
2021/12/23 05:36:53;;;;;;;;;;;;;;;;;;2065954;28;1278;-78
2021/12/23 05:37:55;;;;;;;;;;;;;;;;;;2057518;28;1381;-77
2021/12/23 05:38:56;;;;;;;;;;;;;;;;;;2058674;28;956;-78
2021/12/23 05:39:57;;;;;;;;;;;;;;;;;;2047137;29;1346;-79
2021/12/23 05:41:00;;;;;;;;;;;;;;;;;;2044348;28;1693;-80
2021/12/23 05:42:01;;;;;;;;;;;;;;;;;;2042582;29;1257;-78
2021/12/23 05:43:03;;;;;;;;;;;;;;;;;;2042295;29;1571;-77
2021/12/23 05:44:04;;;;;;;;;;;;;;;;;;2050513;28;1190;-76
2021/12/23 05:45:06;;;;;;;;;;;;;;;;;;2058955;28;797;-77
2021/12/23 05:46:07;;;;;;;;;;;;;;;;;;2052033;28;2012;-77
2021/12/23 05:47:08;;;;;;;;;;;;;;;;;;2058305;28;1235;-76
2021/12/23 05:48:10;;;;;;;;;;;;;;;;;;2058267;28;1600;-78
2021/12/23 05:49:11;;;;;;;;;;;;;;;;;;2052862;28;1361;-76
2021/12/23 05:50:15;;;;;;;;;;;;;;;;;;2060987;28;1289;-77
2021/12/23 05:51:16;;;;;;;;;;;;;;;;;;2064297;28;1987;-79
2021/12/23 05:52:17;;;;;;;;;;;;;;;;;;2055123;28;1346;-79
2021/12/23 05:53:19;;;;;;;;;;;;;;;;;;2046892;28;1378;-81
2021/12/23 05:54:20;;;;;;;;;;;;;;;;;;2045900;29;1354;-79
2021/12/23 05:55:22;;;;;;;;;;;;;;;;;;2049651;29;1907;-83
2021/12/23 05:56:25;;;;;;;;;;;;;;;;;;2051412;28;2060;-78
2021/12/23 05:57:25;;;;;;;;;;;;;;;;;;2049847;28;1748;-78
2021/12/23 05:58:27;;;;;;;;;;;;;;;;;;2053372;28;1349;-78
2021/12/23 05:59:28;;;;;;;;;;;;;;;;;;2059796;28;1708;-78
2021/12/23 06:00:31;;;;;;;;;;;;;;;;;;2061419;28;1298;-77
2021/12/23 06:01:32;;;;;;;;;;;;;;;;;;2056892;28;1822;-77
2021/12/23 06:02:34;;;;;;;;;;;;;;;;;;2058351;28;1286;-79
2021/12/23 06:03:35;;;;;;;;;;;;;;;;;;2066158;28;1333;-78
2021/12/23 06:04:36;;;;;;;;;;;;;;;;;;2063740;28;1277;-78
2021/12/23 06:05:38;;;;;;;;;;;;;;;;;;2054004;28;1513;-78
2021/12/23 06:06:38;;;;;;;;;;;;;;;;;;2044576;29;1663;-78
2021/12/23 06:07:40;;;;;;;;;;;;;;;;;;2055558;28;1294;-78
2021/12/23 06:08:41;;;;;;;;;;;;;;;;;;2060180;28;1254;-78
2021/12/23 06:09:42;;;;;;;;;;;;;;;;;;2057950;28;1477;-77
2021/12/23 06:10:44;;;;;;;;;;;;;;;;;;2054190;28;1365;-79
2021/12/23 06:11:46;;;;;;;;;;;;;;;;;;2050029;29;1649;-77
2021/12/23 06:12:48;;;;;;;;;;;;;;;;;;2050494;28;1085;-74
2021/12/23 06:13:48;;;;;;;;;;;;;;;;;;2058345;28;1676;-75
2021/12/23 06:14:50;;;;;;;;;;;;;;;;;;2050452;29;1615;-76
2021/12/23 06:15:51;;;;;;;;;;;;;;;;;;2050014;29;1919;-76
2021/12/23 06:16:52;;;;;;;;;;;;;;;;;;2050496;28;1403;-75
2021/12/23 06:17:53;;;;;;;;;;;;;;;;;;2050237;29;1678;-76
2021/12/23 06:18:54;;;;;;;;;;;;;;;;;;2050485;28;1486;-76
2021/12/23 06:19:55;;;;;;;;;;;;;;;;;;2049676;29;1328;-77
2021/12/23 06:20:56;;;;;;;;;;;;;;;;;;2042170;28;1859;-78
2021/12/23 06:21:58;;;;;;;;;;;;;;;;;;2058585;28;900;-76
2021/12/23 06:22:59;;;;;;;;;;;;;;;;;;2057289;28;1534;-77
2021/12/23 06:24:03;;;;;;;;;;;;;;;;;;2049531;29;1719;-76
2021/12/23 06:25:05;;;;;;;;;;;;;;;;;;2042102;29;1259;-77
2021/12/23 06:26:06;;;;;;;;;;;;;;;;;;2041993;29;1593;-78
2021/12/23 06:27:08;;;;;;;;;;;;;;;;;;2049011;28;1529;-77
2021/12/23 06:28:10;;;;;;;;;;;;;;;;;;2049385;29;1756;-76
2021/12/23 06:29:10;;;;;;;;;;;;;;;;;;2049642;28;758;-77
2021/12/23 06:30:17;;;;;;;;;;;;;;;;;;2058387;28;1055;-78
2021/12/23 06:31:18;;;;;;;;;;;;;;;;;;2057474;28;1528;-77
2021/12/23 06:32:20;;;;;;;;;;;;;;;;;;2057564;28;1638;-78
2021/12/23 06:33:22;;;;;;;;;;;;;;;;;;2059387;28;1586;-79
2021/12/23 06:34:23;;;;;;;;;;;;;;;;;;2066114;28;1677;-77
2021/12/23 06:35:25;;;;;;;;;;;;;;;;;;2065796;28;1906;-77
2021/12/23 06:36:27;;;;;;;;;;;;;;;;;;2058037;28;2031;-78
2021/12/23 06:37:29;;;;;;;;;;;;;;;;;;2050135;28;1528;-78
2021/12/23 06:38:30;;;;;;;;;;;;;;;;;;2058522;28;833;-77
2021/12/23 06:39:31;;;;;;;;;;;;;;;;;;2058088;28;1773;-77
2021/12/23 06:40:33;;;;;;;;;;;;;;;;;;2050198;28;1513;-77
2021/12/23 06:41:33;;;;;;;;;;;;;;;;;;2050144;28;1708;-78
2021/12/23 06:42:36;;;;;;;;;;;;;;;;;;2058380;28;868;-78
2021/12/23 06:43:38;;;;;;;;;;;;;;;;;;2057805;28;1657;-78
2021/12/23 06:44:39;;;;;;;;;;;;;;;;;;2058435;28;841;-78
2021/12/23 06:45:41;;;;;;;;;;;;;;;;;;2066426;28;926;-77
2021/12/23 06:46:41;;;;;;;;;;;;;;;;;;2066261;28;1481;-78
2021/12/23 06:47:50;;;;;;;;;;;;;;;;;;2066177;28;1309;-77
2021/12/23 06:48:51;;;;;;;;;;;;;;;;;;2066123;28;1561;-78
2021/12/23 06:49:52;;;;;;;;;;;;;;;;;;2066130;28;797;-78
2021/12/23 06:50:55;;;;;;;;;;;;;;;;;;2066878;28;828;-78
2021/12/23 06:51:56;;;;;;;;;;;;;;;;;;2058128;28;1697;-77
2021/12/23 06:52:58;;;;;;;;;;;;;;;;;;2058095;28;966;-83
2021/12/23 06:54:00;;;;;;;;;;;;;;;;;;2057634;28;1568;-77
2021/12/23 06:55:02;;;;;;;;;;;;;;;;;;2049857;28;1253;-77
2021/12/23 06:56:04;;;;;;;;;;;;;;;;;;2058131;28;2009;-78
2021/12/23 06:57:06;;;;;;;;;;;;;;;;;;2066662;28;844;-77
2021/12/23 06:58:09;;;;;;;;;;;;;;;;;;2066653;28;831;-77
2021/12/23 06:59:14;;;;;;;;;;;;;;;;;;2058167;28;1247;-77
2021/12/23 07:00:18;;;;;;;;;;;;;;;;;;2050528;28;1212;-77
2021/12/23 07:01:20;;;;;;;;;;;;;;;;;;2049837;29;1962;-77
2021/12/23 07:02:23;;;;;;;;;;;;;;;;;;2050425;28;1573;-78
2021/12/23 07:03:30;;;;;;;;;;;;;;;;;;2049873;28;1595;-78
2021/12/23 07:04:33;;;;;;;;;;;;;;;;;;2058793;28;1608;-78
2021/12/23 07:05:35;;;;;;;;;;;;;;;;;;2049821;29;1625;-78
2021/12/23 07:06:37;;;;;;;;;;;;;;;;;;2050080;29;1672;-77
2021/12/23 07:07:51;;;;;;;;;;;;;;;;;;2055752;28;1758;-77
2021/12/23 07:08:54;;;;;;;;;;;;;;;;;;2058110;28;1158;-78
2021/12/23 07:09:55;;;;;;;;;;;;;;;;;;2052152;28;1567;-77
2021/12/23 07:10:56;;;;;;;;;;;;;;;;;;2066006;28;1641;-77
2021/12/23 07:11:58;;;;;;;;;;;;;;;;;;2066112;28;1243;-77
2021/12/23 07:12:59;;;;;;;;;;;;;;;;;;2058014;28;1202;-77
2021/12/23 07:14:02;;;;;;;;;;;;;;;;;;2057944;28;1731;-77
2021/12/23 07:15:03;;;;;;;;;;;;;;;;;;2057452;28;1619;-78
2021/12/23 07:16:05;;;;;;;;;;;;;;;;;;2052989;28;1906;-77